KBVO

Details ICAO KBVO
Name Bartlesville Muni
Region United States
Timezone America/Chicago (UTC-5.0)
Plans Departing 6
Arriving 8
Stats Elevation 713 ft / 217 m (AMSL)
Location 36.762465° -96.011146°
Runways 1
Magnetic Variation 2.688° E
Sunrise 2018-05-25 11:11:11 UTC / 2018-05-25 06:11:11 Local
Sunset 2018-05-26 01:33:43 UTC / 2018-05-25 20:33:43 Local
Advertisement - Login to hide

Runways

ID Width Length Bearing (true) Bearing (mag) Surface Threshold Offset Overrun Length
17 100 ft / 30 m 6,216 ft / 1,895 m 178.84° 176.15° Asphalt 0 ft / 0 m 0 ft / 0 m
35 100 ft / 30 m 6,216 ft / 1,895 m 358.84° 356.15° Asphalt 300 ft / 91 m 0 ft / 0 m

Approach Navaids

Runway Type Ident Frequency Range Bearing (true) Bearing (mag) Slope Elevation
17 Localiser IBVO 111.30 MHz 18 nm / 33 km 178.87° 176.18° - 713 ft / 217 m (AMSL)

Map

Weather


0- 5 10 15 20 25 30 35+ Temperature / ° C

Clouds and Precipitation
Forecast for 2018-05-25 18:00 UTC. Updated 6 hours ago

Ground ~20,000 ft ~40,000 ft Winds

METAR

KBVO 252253Z AUTO 25003KT 10SM CLR 29/18 A2984 RMK AO2 SLP095 T02890183

TAF

TAF KBVO 251720Z 2518/2618 VRB04KT P6SM VCTS BKN040CB BKN110 FM252000 VRB04KT P6SM BKN040 FM260300 VRB03KT P6SM BKN250

Frequencies

Recorded 132.67 MHz ASOS
Unicom 123.00 MHz UNICOM
Unicom 120.00 MHz CTAF
Warning: Do not use this data for real-world aviation or navigation. No guarantee of current accuracy is given.